M I D A S
Marine Information and Data Acquisition System
Tripno 431 of the Zeeleeuw from 2003-02-14 07:41:10 to 2003-02-14 14:48:10
Back to CruiseResearch ActivitiesStationsMapUnderway DataData graphs

EquipmentUnitsComments
TimeDGPSUTC
LatitudeDGPSDM.mWGS84
LongitudeDGPSDM.mWGS84
SpeedMeteo Stationm/sRelative wind speed
DirectionMeteo StationdegRelative wind direction
TemperatureMeteo Stationdeg CelciusAir temperature
PressureMeteo StationPaAtmospheric pressure
HumidityMeteo Station%Relative humidity
Missing or incorrect values are displayed as -999
Metereological data collected by the RV Zeeleeuw from 2003-02-14 07:41:10 to 2003-02-14 14:48:10
Time Latitude Longitude Speed Direction Temperature Pressure Humidity
2003-02-14 07:42 51°13.676 2°55.788 1.5 232 -2.8 102810 75
2003-02-14 07:43 51°13.682 2°55.745 3.8 197 -2.7 102810 75
2003-02-14 07:44 51°13.699 2°55.76 4.3 139 -2.7 102810 75
2003-02-14 07:45 51°13.698 2°55.753 3.4 125 -2.8 102810 75
2003-02-14 07:46 51°13.748 2°55.706 2.6 186 -2.8 102810 75
2003-02-14 07:47 51°13.852 2°55.613 3.8 213 -2.8 102820 75
2003-02-14 07:48 51°13.973 2°55.525 3.9 166 -2.8 102810 75
2003-02-14 07:49 51°14.098 2°55.438 3.2 196 -2.8 102810 75
2003-02-14 07:50 51°14.215 2°55.33 3.2 128 -2.9 102800 74
2003-02-14 07:51 51°14.293 2°55.199 1.3 120 -2.9 102790 75
2003-02-14 07:52 51°14.365 2°55.036 3.2 163 -2.8 102810 75
2003-02-14 07:53 51°14.423 2°54.788 2.6 250 -2.8 102820 75
2003-02-14 07:54 51°14.394 2°54.506 3.9 270 -2.7 102820 75
2003-02-14 07:55 51°14.3 2°54.232 4.6 273 -2.6 102820 76
2003-02-14 07:56 51°14.202 2°53.947 2.3 266 -2.5 102810 75
2003-02-14 07:57 51°14.101 2°53.643 4 257 -2.4 102820 75
2003-02-14 07:58 51°13.991 2°53.318 4.4 260 -2.3 102820 75
2003-02-14 07:59 51°13.882 2°52.984 4.7 262 -2.1 102820 74
2003-02-14 08:00 51°13.772 2°52.649 4.7 270 -2 102820 73
2003-02-14 08:01 51°13.658 2°52.31 3.6 261 -1.9 102820 73
2003-02-14 08:02 51°13.55 2°51.98 5.2 276 -1.9 102830 73
2003-02-14 08:03 51°13.44 2°51.645 4.3 270 -1.9 102820 72
2003-02-14 08:04 51°13.326 2°51.308 4.2 268 -1.8 102820 72
2003-02-14 08:05 51°13.219 2°50.979 4.9 266 -1.8 102830 71
2003-02-14 08:06 51°13.108 2°50.646 4.7 262 -1.7 102830 71
2003-02-14 08:07 51°12.996 2°50.31 5.3 273 -1.7 102830 71
2003-02-14 08:08 51°12.887 2°49.979 5.2 269 -1.7 102820 71
2003-02-14 08:09 51°12.778 2°49.648 4.6 269 -1.7 102820 71
2003-02-14 08:10 51°12.671 2°49.313 4.1 264 -1.7 102830 70
2003-02-14 08:11 51°12.563 2°48.98 4.6 279 -1.6 102830 71
2003-02-14 08:12 51°12.455 2°48.649 4.6 262 -1.6 102830 71
2003-02-14 08:13 51°12.349 2°48.316 4.7 277 -1.6 102830 71
2003-02-14 08:14 51°12.243 2°47.992 4.6 272 -1.5 102830 71
2003-02-14 08:15 51°12.135 2°47.658 4.7 280 -1.4 102830 71
2003-02-14 08:16 51°12.027 2°47.332 4.9 283 -1.6 102830 71
2003-02-14 08:17 51°11.924 2°47.003 3.9 269 -1.5 102840 71
2003-02-14 08:18 51°11.834 2°46.664 4 280 -1.5 102840 72
2003-02-14 08:19 51°11.746 2°46.324 3.2 275 -1.5 102840 72
2003-02-14 08:20 51°11.659 2°45.982 3.7 262 -1.5 102840 72
2003-02-14 08:21 51°11.568 2°45.642 4.1 263 -1.5 102850 72
2003-02-14 08:22 51°11.481 2°45.302 3 261 -1.5 102840 72
2003-02-14 08:23 51°11.383 2°44.973 4.3 272 -1.5 102840 72
2003-02-14 08:24 51°11.285 2°44.652 3.9 277 -1.4 102850 72
2003-02-14 08:25 51°11.184 2°44.318 4 265 -1.4 102840 72
2003-02-14 08:26 51°11.088 2°43.994 3.7 266 -1.4 102840 72
2003-02-14 08:27 51°10.99 2°43.662 4.2 267 -1.4 102840 71
2003-02-14 08:28 51°10.892 2°43.338 4 275 -1.4 102850 71
2003-02-14 08:29 51°10.793 2°43.012 4.2 270 -1.4 102840 71
2003-02-14 08:30 51°10.697 2°42.692 3.8 278 -1.4 102840 72
2003-02-14 08:31 51°10.597 2°42.362 3.8 279 -1.4 102840 72
2003-02-14 08:32 51°10.498 2°42.04 4.2 281 -1.4 102840 72
2003-02-14 08:33 51°10.4 2°41.719 4 284 -1.4 102840 72
2003-02-14 08:34 51°10.305 2°41.404 4.3 275 -1.4 102840 72
2003-02-14 08:35 51°10.205 2°41.082 3.3 281 -1.4 102840 72
2003-02-14 08:36 51°10.11 2°40.765 5.2 287 -1.4 102850 72
2003-02-14 08:37 51°10.015 2°40.446 4.3 292 -1.4 102850 73
2003-02-14 08:38 51°9.919 2°40.125 3.4 279 -1.4 102850 73
2003-02-14 08:39 51°9.823 2°39.8 3.6 282 -1.4 102850 73
2003-02-14 08:40 51°9.729 2°39.475 3.1 276 -1.4 102850 74
2003-02-14 08:41 51°9.636 2°39.15 4.5 278 -1.4 102850 74
2003-02-14 08:42 51°9.54 2°38.826 4.9 281 -1.3 102860 74
2003-02-14 08:43 51°9.445 2°38.502 3.2 262 -1.3 102850 73
2003-02-14 08:44 51°9.351 2°38.18 4.2 277 -1.3 102850 73
2003-02-14 08:45 51°9.259 2°37.861 3.3 266 -1.3 102850 73
2003-02-14 08:46 51°9.164 2°37.561 3.3 294 -1.3 102850 73
2003-02-14 08:47 51°9.108 2°37.349 0.8 333 -1.3 102860 73
2003-02-14 08:48 51°9.098 2°37.242 4.3 20 -1.2 102840 73
2003-02-14 08:49 51°9.09 2°37.237 4.3 351 -1.3 102850 73
2003-02-14 08:50 51°9.075 2°37.227 4.9 355 -1.4 102840 73
2003-02-14 08:51 51°9.062 2°37.22 4.8 358 -1.5 102850 73
2003-02-14 08:52 51°9.052 2°37.218 4.1 347 -1.6 102850 73
2003-02-14 08:53 51°9.043 2°37.221 4 354 -1.6 102850 73
2003-02-14 08:54 51°9.038 2°37.227 3.9 352 -1.6 102850 73
2003-02-14 08:55 51°9.034 2°37.235 2.7 346 -1.6 102850 73
2003-02-14 08:56 51°9.032 2°37.243 4.6 2 -1.6 102850 73
2003-02-14 08:57 51°9.03 2°37.251 4.9 359 -1.6 102860 74
2003-02-14 08:58 51°9.03 2°37.261 4.2 12 -1.5 102860 74
2003-02-14 08:59 51°9.029 2°37.271 4.3 4 -1.5 102850 74
2003-02-14 09:00 51°9.028 2°37.282 1.4 344 -1.4 102850 75
2003-02-14 09:01 51°9.028 2°37.298 0.7 318 -1.4 102860 75
2003-02-14 09:02 51°9.028 2°37.316 0.7 325 -1.4 102850 75
2003-02-14 09:03 51°9.029 2°37.336 0.6 336 -1.4 102850 75
2003-02-14 09:04 51°9.031 2°37.357 3 303 -1.4 102850 75
2003-02-14 09:05 51°9.027 2°37.382 4.1 315 -1.4 102850 75
2003-02-14 09:06 51°8.99 2°37.37 2.1 19 -1.4 102850 75
2003-02-14 09:07 51°9.016 2°37.275 3.5 135 -1.3 102850 76
2003-02-14 09:08 51°9.098 2°37.169 4.6 166 -1.3 102840 75
2003-02-14 09:09 51°9.152 2°37.151 3.4 97 -1.4 102850 75
2003-02-14 09:10 51°9.159 2°37.157 3.9 62 -1.3 102850 76
2003-02-14 09:11 51°9.163 2°37.164 4.3 47 -1.1 102850 77
2003-02-14 09:12 51°9.164 2°37.167 4.3 47 -0.8 102860 77
2003-02-14 09:13 51°9.165 2°37.164 3.7 48 -0.5 102850 76
2003-02-14 09:14 51°9.161 2°37.158 3.6 5 -0.5 102850 73
2003-02-14 09:15 51°9.15 2°37.154 4.6 4 -0.7 102850 72
2003-02-14 09:16 51°9.135 2°37.155 1.4 338 -0.8 102850 73
2003-02-14 09:17 51°9.117 2°37.164 2.4 312 -1 102860 72
2003-02-14 09:18 51°9.099 2°37.179 1.5 331 -1.1 102860 73
2003-02-14 09:19 51°9.081 2°37.197 1.5 326 -1.1 102850 73
2003-02-14 09:20 51°9.065 2°37.209 1.3 312 -1.1 102860 74
2003-02-14 09:21 51°9.054 2°37.212 4.3 357 -1 102860 75
2003-02-14 09:22 51°9.05 2°37.21 3.7 46 -1 102860 75
2003-02-14 09:23 51°9.053 2°37.205 4.5 54 -0.8 102860 76
2003-02-14 09:24 51°9.062 2°37.202 3.8 85 -0.7 102860 74
2003-02-14 09:25 51°9.074 2°37.203 4.4 88 -0.9 102850 73
2003-02-14 09:26 51°9.088 2°37.208 3.9 99 -1.1 102850 73
2003-02-14 09:27 51°9.103 2°37.213 3.9 89 -1.1 102850 73
2003-02-14 09:28 51°9.117 2°37.217 4.2 87 -1.2 102850 73
2003-02-14 09:29 51°9.128 2°37.218 4.3 73 -1.2 102860 73
2003-02-14 09:30 51°9.135 2°37.217 4.1 53 -1.2 102860 74
2003-02-14 09:31 51°9.138 2°37.216 4.9 25 -1 102860 74
2003-02-14 09:32 51°9.135 2°37.218 4.6 5 -1 102860 73
2003-02-14 09:33 51°9.129 2°37.223 3 330 -1 102870 73
2003-02-14 09:34 51°9.119 2°37.23 4 357 -0.9 102860 74
2003-02-14 09:35 51°9.108 2°37.235 4.7 356 -0.9 102860 74
2003-02-14 09:36 51°9.096 2°37.225 3.2 25 -0.9 102870 73
2003-02-14 09:37 51°9.1 2°37.2 3.3 80 -0.8 102870 74
2003-02-14 09:38 51°9.123 2°37.185 4.3 110 -0.8 102870 73
2003-02-14 09:39 51°9.153 2°37.189 4.1 136 -0.9 102860 73
2003-02-14 09:40 51°9.184 2°37.211 4.9 181 -0.9 102860 74
2003-02-14 09:41 51°9.212 2°37.251 4.8 197 -0.9 102860 74
2003-02-14 09:42 51°9.23 2°37.305 5 231 -1.1 102870 74
2003-02-14 09:43 51°9.233 2°37.366 6.1 256 -1 102860 74
2003-02-14 09:44 51°9.224 2°37.422 5.1 281 -0.9 102860 74
2003-02-14 09:45 51°9.205 2°37.462 2.6 311 -0.8 102870 74
2003-02-14 09:46 51°9.183 2°37.475 3.4 2 -0.8 102870 73
2003-02-14 09:47 51°9.169 2°37.467 1.9 37 -0.9 102870 73
2003-02-14 09:48 51°9.169 2°37.448 3.3 68 -0.7 102870 74
2003-02-14 09:49 51°9.188 2°37.401 0.6 74 -0.7 102860 74
2003-02-14 09:50 51°9.097 2°37.207 4.8 270 -0.6 102860 74
2003-02-14 09:51 51°9.018 2°36.911 4 233 -0.5 102860 74
2003-02-14 09:52 51°8.97 2°36.586 3.5 243 -0.5 102860 73
2003-02-14 09:53 51°8.92 2°36.259 3.7 241 -0.5 102870 73
2003-02-14 09:54 51°8.871 2°35.93 3.7 246 -0.4 102870 75
2003-02-14 09:55 51°8.815 2°35.604 3.9 249 -0.4 102860 74
2003-02-14 09:56 51°8.756 2°35.279 3.5 247 -0.4 102870 74
2003-02-14 09:57 51°8.696 2°34.953 3.6 242 -0.4 102860 72
2003-02-14 09:58 51°8.628 2°34.63 4 240 -0.4 102870 72
2003-02-14 09:59 51°8.547 2°34.319 4.2 246 -0.3 102870 73
2003-02-14 10:00 51°8.431 2°34.036 3.6 245 -0.3 102860 73
2003-02-14 10:01 51°8.324 2°33.752 3.5 247 -0.2 102870 73
2003-02-14 10:02 51°8.238 2°33.471 2.5 270 -0.1 102870 73
2003-02-14 10:03 51°8.167 2°33.3 2.2 284   102870 73
2003-02-14 10:04 51°8.121 2°33.131 1.2 299 0.2 102870 73
2003-02-14 10:05 51°8.096 2°33.017 1.5 357 0.3 102880 71
2003-02-14 10:06 51°8.094 2°32.988 3 30 0.3 102880 70
2003-02-14 10:07 51°8.096 2°32.963 2.5 20 0.2 102890 69
2003-02-14 10:08 51°8.094 2°32.95 2.7 351 0.1 102890 70
2003-02-14 10:09 51°8.089 2°32.948 2.6 345 0.1 102880 70
2003-02-14 10:10 51°8.085 2°32.956 2.2 347   102880 69
2003-02-14 10:11 51°8.08 2°32.968 3.2 360 -0.1 102880 69
2003-02-14 10:12 51°8.076 2°32.981 0.4 328   102880 71
2003-02-14 10:13 51°8.073 2°32.994 1.9 340 -0.1 102880 70
2003-02-14 10:14 51°8.07 2°33.002 3.3 2   102880 71
2003-02-14 10:15 51°8.066 2°33.003 2.9 13   102880 71
2003-02-14 10:16 51°8.062 2°33.001 3.2 5 0.1 102880 72
2003-02-14 10:17 51°8.058 2°32.995 3.2 15   102880 71
2003-02-14 10:18 51°8.053 2°32.988 3 21   102890 70
2003-02-14 10:19 51°8.05 2°32.977 2.8 41   102880 70
2003-02-14 10:20 51°8.053 2°32.962 2.1 47 0.1 102880 71
2003-02-14 10:21 51°8.064 2°32.946 2.7 103 0.3 102880 71
2003-02-14 10:22 51°8.081 2°32.934 3.3 119 0.3 102880 71
2003-02-14 10:23 51°8.106 2°32.93 3.5 136 0.2 102880 71
2003-02-14 10:24 51°8.133 2°32.934 3.9 139 0.2 102880 72
2003-02-14 10:25 51°8.162 2°32.944 2.8 115 0.1 102880 70
2003-02-14 10:26 51°8.188 2°32.953 3.1 113 0.2 102880 71
2003-02-14 10:27 51°8.211 2°32.959 3.3 92 0.1 102890 71
2003-02-14 10:28 51°8.23 2°32.962 3.8 81 0.1 102890 71
2003-02-14 10:29 51°8.244 2°32.964 3.4 63 0.1 102890 70
2003-02-14 10:30 51°8.251 2°32.969 3.5 21 0.2 102890 71
2003-02-14 10:31 51°8.252 2°32.98 3.3 349 0.2 102890 70
2003-02-14 10:32 51°8.251 2°33.001 0.5 334 0.3 102890 70
2003-02-14 10:33 51°8.23 2°33.005 2.9 4 0.2 102890 71
2003-02-14 10:34 51°8.218 2°32.974 2.5 46 0.3 102890 70
2003-02-14 10:35 51°8.23 2°32.935 3.2 107 0.4 102890 70
2003-02-14 10:36 51°8.262 2°32.907 3.2 136 0.4 102880 69
2003-02-14 10:37 51°8.304 2°32.899 3.8 145 0.4 102890 71
2003-02-14 10:38 51°8.35 2°32.913 4.3 173 0.3 102890 71
2003-02-14 10:39 51°8.399 2°32.943 3.7 188 0.2 102890 71
2003-02-14 10:40 51°8.444 2°32.992 5.5 207 0.2 102890 71
2003-02-14 10:41 51°8.482 2°33.055 5.1 226 0.1 102890 70
2003-02-14 10:42 51°8.507 2°33.131 5.6 254 0.2 102900 71
2003-02-14 10:43 51°8.514 2°33.206 5 292 0.3 102890 71
2003-02-14 10:44 51°8.506 2°33.262 1.8 316 0.5 102900 71
2003-02-14 10:45 51°8.474 2°33.312 5.7 282 0.4 102900 69
2003-02-14 10:46 51°8.455 2°33.53 9.2 225 0.5 102880 69
2003-02-14 10:47 51°8.59 2°33.562 5.3 172 0.5 102880 69
2003-02-14 10:48 51°8.572 2°33.378 1.1 234 0.5 102900 70
2003-02-14 10:49 51°8.566 2°33.134 2.5 184 0.6 102890 70
2003-02-14 10:50 51°8.565 2°32.877 2.1 164 0.5 102900 70
2003-02-14 10:51 51°8.542 2°32.65 1.4 141 0.5 102890 69
2003-02-14 10:52 51°8.517 2°32.495 1.7 72 0.6 102900 70
2003-02-14 10:53 51°8.499 2°32.393 3 86 0.6 102900 68
2003-02-14 10:54 51°8.505 2°32.352 3.7 85 0.6 102900 66
2003-02-14 10:55 51°8.516 2°32.337 3.7 85 0.6 102890 67
2003-02-14 10:56 51°8.521 2°32.326 4.2 55 0.6 102900 65
2003-02-14 10:57 51°8.518 2°32.324 3.7 17 0.7 102900 67
2003-02-14 10:58 51°8.509 2°32.326 4.9 23 0.8 102900 67
2003-02-14 10:59 51°8.498 2°32.326 4.4 16 0.7 102900 65
2003-02-14 11:00 51°8.483 2°32.337 3.7 357 0.7 102900 65
2003-02-14 11:01 51°8.471 2°32.345 3.6 9 0.8 102900 66
2003-02-14 11:02 51°8.467 2°32.342 4.8 54 0.9 102900 67
2003-02-14 11:03 51°8.472 2°32.332 4.5 77 0.9 102900 66
2003-02-14 11:04 51°8.483 2°32.319 4.3 97 0.8 102890 67
2003-02-14 11:05 51°8.498 2°32.306 4.6 111 0.9 102890 66
2003-02-14 11:06 51°8.515 2°32.294 4.4 116 0.9 102900 65
2003-02-14 11:07 51°8.529 2°32.284 4.1 85 0.9 102900 63
2003-02-14 11:08 51°8.534 2°32.276 4.1 57 0.9 102900 63
2003-02-14 11:09 51°8.534 2°32.273 5 24 1.1 102910 66
2003-02-14 11:10 51°8.527 2°32.277 4.6 359 1 102900 64
2003-02-14 11:11 51°8.518 2°32.283 3.7 13 1.1 102900 64
2003-02-14 11:12 51°8.508 2°32.287 4.8 32 1.1 102900 66
2003-02-14 11:13 51°8.501 2°32.28 3.8 40 1 102900 65
2003-02-14 11:14 51°8.496 2°32.266 4.7 65 1.2 102900 67
2003-02-14 11:15 51°8.492 2°32.248 5.1 55 1.1 102900 67
2003-02-14 11:16 51°8.487 2°32.228 4.7 60 1 102900 66
2003-02-14 11:17 51°8.484 2°32.204 4.8 76 1 102900 67
2003-02-14 11:18 51°8.481 2°32.182 5.3 76 0.9 102890 67
2003-02-14 11:19 51°8.48 2°32.164 4.9 74 0.9 102900 65
2003-02-14 11:20 51°8.478 2°32.151 5.3 70 0.9 102890 67
2003-02-14 11:21 51°8.478 2°32.138 5.9 58 0.9 102900 67
2003-02-14 11:22 51°8.477 2°32.128 5.2 50 0.8 102890 66
2003-02-14 11:23 51°8.474 2°32.109 5.3 79 1 102900 68
2003-02-14 11:24 51°8.49 2°32.073 5.5 130 1 102910 68
2003-02-14 11:25 51°8.525 2°32.054 7.1 169 1 102900 69
2003-02-14 11:26 51°8.563 2°32.06 6.2 184 0.9 102900 69
2003-02-14 11:27 51°8.596 2°32.075 6.6 195 0.8 102890 68
2003-02-14 11:28 51°8.626 2°32.096 6.6 199 0.8 102880 67
2003-02-14 11:29 51°8.653 2°32.124 7.2 210 0.9 102880 69
2003-02-14 11:30 51°8.674 2°32.158 7.4 215 0.8 102880 67
2003-02-14 11:31 51°8.69 2°32.198 6.8 241 0.9 102890 67
2003-02-14 11:32 51°8.698 2°32.244 7.3 264 1 102890 68
2003-02-14 11:33 51°8.694 2°32.292 8.4 289 1.2 102880 67
2003-02-14 11:34 51°8.681 2°32.339 7.8 285 1.2 102880 67
2003-02-14 11:35 51°8.668 2°32.387 7.5 277 1.3 102890 67
2003-02-14 11:36 51°8.663 2°32.438 7.6 262 1.4 102880 67
2003-02-14 11:37 51°8.667 2°32.486 6.9 254 1.4 102890 66
2003-02-14 11:38 51°8.676 2°32.532 7.8 257 1.4 102890 68
2003-02-14 11:39 51°8.683 2°32.578 7.5 247 1.5 102890 68
2003-02-14 11:40 51°8.689 2°32.624 7.9 258 1.4 102890 66
2003-02-14 11:41 51°8.695 2°32.67 7.1 256 1.5 102880 67
2003-02-14 11:42 51°8.702 2°32.716 7.1 251 1.4 102890 65
2003-02-14 11:43 51°8.711 2°32.762 7.8 247 1.4 102900 66
2003-02-14 11:44 51°8.723 2°32.808 7 246 1.4 102890 64
2003-02-14 11:45 51°8.736 2°32.853 7.4 234 1.4 102880 65
2003-02-14 11:46 51°8.753 2°32.896 6.9 226 1.3 102890 65
2003-02-14 11:47 51°8.773 2°32.936 7.3 211 1.3 102890 65
2003-02-14 11:48 51°8.795 2°32.97 6.5 199 1.3 102880 68
2003-02-14 11:49 51°8.822 2°32.995 5.8 178 1.1 102890 68
2003-02-14 11:50 51°8.853 2°33.01 6.1 176 1.1 102900 71
2003-02-14 11:51 51°8.884 2°33.018 7.6 168 1 102900 71
2003-02-14 11:52 51°8.916 2°33.02 5.2 156 1 102900 70
2003-02-14 11:53 51°8.948 2°33.021 6.8 162 1 102900 71
2003-02-14 11:54 51°8.98 2°33.018 7.2 151 1.1 102890 72
2003-02-14 11:55 51°9.012 2°33.009 6.7 136 1.1 102900 71
2003-02-14 11:56 51°9.041 2°32.992 6 125 1.1 102900 70
2003-02-14 11:57 51°9.066 2°32.969 6.2 120 1.3 102910 73
2003-02-14 11:58 51°9.082 2°32.939 6.3 105 1.3 102900 71
2003-02-14 11:59 51°9.082 2°32.894 5.1 43 1.3 102900 69
2003-02-14 12:00 51°9.063 2°32.864 5.6 15 1.2 102900 69
2003-02-14 12:01 51°9.038 2°32.853 6.5 2 1.2 102900 69
2003-02-14 12:02 51°9.014 2°32.858 1.9 326 1.3 102890 70
2003-02-14 12:03 51°8.993 2°32.866 0.9 345 1.1 102900 67
2003-02-14 12:04 51°8.955 2°32.823 3.6 65 1.2 102900 69
2003-02-14 12:05 51°8.971 2°32.737 6 126 1.3 102890 70
2003-02-14 12:06 51°9.003 2°32.683 5.9 139 1.4 102890 70
2003-02-14 12:07 51°9.031 2°32.645 6.1 140 1.4 102890 69
2003-02-14 12:08 51°9.052 2°32.623 5.7 135 1.3 102880 69
2003-02-14 12:09 51°9.066 2°32.611 6.3 130 1.4 102890 70
2003-02-14 12:10 51°9.077 2°32.604 6.3 141 1.3 102890 70
2003-02-14 12:11 51°9.083 2°32.6 6.4 141 1.4 102890 70
2003-02-14 12:12 51°9.086 2°32.597 7.1 133 1.4 102880 70
2003-02-14 12:13 51°9.085 2°32.595 6.1 140 1.4 102890 68
2003-02-14 12:14 51°9.081 2°32.596 6.7 120 1.4 102890 68
2003-02-14 12:15 51°9.075 2°32.601 6 109 1.3 102890 66
2003-02-14 12:16 51°9.071 2°32.61 6.2 104 1.4 102890 66
2003-02-14 12:17 51°9.067 2°32.62 6.9 84 1.5 102890 68
2003-02-14 12:18 51°9.063 2°32.633 6.7 79 1.4 102890 66
2003-02-14 12:19 51°9.061 2°32.644 6.2 73 1.3 102890 64
2003-02-14 12:20 51°9.06 2°32.652 6.4 71 1.3 102890 64
2003-02-14 12:21 51°9.059 2°32.658 6.8 78 1.3 102890 66
2003-02-14 12:22 51°9.057 2°32.662 6.3 71 1.4 102900 68
2003-02-14 12:23 51°9.056 2°32.665 8.1 90 1.5 102890 68
2003-02-14 12:24 51°9.054 2°32.667 7.1 102 1.5 102880 66
2003-02-14 12:25 51°9.052 2°32.669 7.6 110 1.4 102890 66
2003-02-14 12:26 51°9.049 2°32.67 5.8 118 1.4 102880 64
2003-02-14 12:27 51°9.045 2°32.671 6.8 117 1.4 102880 64
2003-02-14 12:28 51°9.042 2°32.67 6.5 113 1.4 102880 63
2003-02-14 12:29 51°9.042 2°32.667 6.7 105 1.4 102880 64
2003-02-14 12:30 51°9.044 2°32.659 6.2 112 1.4 102880 64
2003-02-14 12:31 51°9.049 2°32.649 6.2 120 1.4 102880 64
2003-02-14 12:32 51°9.056 2°32.638 6 130 1.5 102880 65
2003-02-14 12:33 51°9.064 2°32.627 7.5 128 1.5 102880 66
2003-02-14 12:34 51°9.072 2°32.616 6.8 132 1.6 102880 67
2003-02-14 12:35 51°9.087 2°32.601 6.4 138 1.6 102890 66
2003-02-14 12:36 51°9.114 2°32.59 6.9 171 1.5 102890 65
2003-02-14 12:37 51°9.147 2°32.596 7 186 1.5 102870 66
2003-02-14 12:38 51°9.176 2°32.624 9.2 226 1.5 102870 67
2003-02-14 12:39 51°9.188 2°32.672 8.9 260 1.4 102880 62
2003-02-14 12:40 51°9.175 2°32.726 10.2 293 1.6 102860 62
2003-02-14 12:41 51°9.141 2°32.768 5 301 1.6 102870 63
2003-02-14 12:42 51°9.098 2°32.789 0.8 303 1.7 102870 66
2003-02-14 12:43 51°9.049 2°32.784 4.5 338 1.7 102870 66
2003-02-14 12:44 51°9.004 2°32.746 4.5 15 1.6 102870 65
2003-02-14 12:45 51°8.973 2°32.681 6.4 26 1.6 102880 66
2003-02-14 12:46 51°8.951 2°32.627 5.8 19 1.5 102880 62
2003-02-14 12:47 51°8.927 2°32.593 5.6 8 1.6 102880 66
2003-02-14 12:48 51°8.878 2°32.623 9.5 276 1.8 102870 69
2003-02-14 12:49 51°8.89 2°32.73 7.8 219 1.8 102860 67
2003-02-14 12:50 51°8.931 2°32.807 8.4 233 1.8 102850 64
2003-02-14 12:51 51°8.948 2°32.908 8.9 265 1.8 102870 65
2003-02-14 12:52 51°8.931 2°32.997 8.4 284 1.8 102860 65
2003-02-14 12:53 51°8.894 2°33.072 7.7 293 1.8 102860 64
2003-02-14 12:54 51°8.853 2°33.137 6.8 303 1.9 102860 65
2003-02-14 12:55 51°8.807 2°33.184 1.5 331 1.8 102860 65
2003-02-14 12:56 51°8.754 2°33.196 0.4 321 1.8 102870 66
2003-02-14 12:57 51°8.704 2°33.16 5.2 16 1.7 102870 63
2003-02-14 12:58 51°8.676 2°33.085 5.4 56 1.6 102870 61
2003-02-14 12:59 51°8.682 2°32.993 5.4 97 1.8 102880 63
2003-02-14 13:00 51°8.719 2°32.913 6.9 142 1.9 102870 64
2003-02-14 13:01 51°8.776 2°32.863 8.2 161 1.8 102880 63
2003-02-14 13:02 51°8.841 2°32.846 7 180 1.8 102870 62
2003-02-14 13:03 51°8.906 2°32.869 8.5 211 1.7 102860 62
2003-02-14 13:04 51°8.956 2°32.931 9.7 224 1.7 102850 63
2003-02-14 13:05 51°8.979 2°33.025 10.4 257 1.8 102860 63
2003-02-14 13:06 51°8.966 2°33.111 8.1 279 1.8 102860 61
2003-02-14 13:07 51°8.95 2°33.167 9 290 1.9 102860 61
2003-02-14 13:08 51°8.938 2°33.204 8.5 303 1.9 102860 60
2003-02-14 13:09 51°8.931 2°33.23 8.1 289 1.9 102870 64
2003-02-14 13:10 51°8.925 2°33.251 9 298 2 102870 68
2003-02-14 13:11 51°8.919 2°33.277 8.9 283 2 102870 61
2003-02-14 13:12 51°8.935 2°33.375 11.8 228 2.1 102860 62
2003-02-14 13:13 51°9.002 2°33.575 12.5 238 2.1 102860 62
2003-02-14 13:14 51°9.047 2°33.818 11.9 237 2 102860 60
2003-02-14 13:15 51°9.094 2°34.063 12.7 235 2 102880 62
2003-02-14 13:16 51°9.14 2°34.307 12.8 242 2 102860 61
2003-02-14 13:17 51°9.187 2°34.548 14 242 2 102870 62
2003-02-14 13:18 51°9.234 2°34.785 13.8 238 2 102860 62
2003-02-14 13:19 51°9.282 2°35.025 12.7 243 2 102850 62
2003-02-14 13:20 51°9.33 2°35.266 13.4 241 2 102860 64
2003-02-14 13:21 51°9.378 2°35.505 13.4 240 2 102860 61
2003-02-14 13:22 51°9.424 2°35.746 12.9 241 2 102860 62
2003-02-14 13:23 51°9.47 2°35.987 13.3 240 2 102860 62
2003-02-14 13:24 51°9.524 2°36.224 12.4 245 2 102870 63
2003-02-14 13:25 51°9.576 2°36.462 13.2 240 2 102860 63
2003-02-14 13:26 51°9.629 2°36.7 13.8 239 2.1 102870 66
2003-02-14 13:27 51°9.679 2°36.935 12.9 240 2.1 102870 64
2003-02-14 13:28 51°9.727 2°37.17 11.9 237 2 102860 63
2003-02-14 13:29 51°9.776 2°37.406 12.5 244 2 102860 64
2003-02-14 13:30 51°9.824 2°37.643 12.2 243 2 102870 64
2003-02-14 13:31 51°9.873 2°37.884 12.7 242 2 102860 66
2003-02-14 13:32 51°9.92 2°38.125 11.9 243 2.1 102860 65
2003-02-14 13:33 51°9.966 2°38.364 13.4 236 2.1 102850 67
2003-02-14 13:34 51°10.013 2°38.603 13 237 2.1 102860 66
2003-02-14 13:35 51°10.06 2°38.843 13.5 237 2.1 102850 64
2003-02-14 13:36 51°10.108 2°39.079 13.1 241 2.1 102860 65
2003-02-14 13:37 51°10.157 2°39.312 12.5 240 2 102860 64
2003-02-14 13:38 51°10.205 2°39.546 14.4 237 2 102850 65
2003-02-14 13:39 51°10.254 2°39.782 12.7 238 2 102860 65
2003-02-14 13:40 51°10.303 2°40.017 12.2 241 2 102860 65
2003-02-14 13:41 51°10.351 2°40.251 13.4 236 2 102850 66
2003-02-14 13:42 51°10.401 2°40.481 12 239 2 102860 63
2003-02-14 13:43 51°10.449 2°40.711 12.6 241 2 102860 65
2003-02-14 13:44 51°10.498 2°40.94 13 238 2 102860 65
2003-02-14 13:45 51°10.548 2°41.17 13.1 237 2 102850 65
2003-02-14 13:46 51°10.598 2°41.4 13.1 239 1.9 102850 63
2003-02-14 13:47 51°10.648 2°41.628 12.6 236 1.9 102850 63
2003-02-14 13:48 51°10.696 2°41.856 12.5 242 1.9 102850 65
2003-02-14 13:49 51°10.745 2°42.083 12.5 237 2 102860 64
2003-02-14 13:50 51°10.794 2°42.311 12.9 239 2 102860 67
2003-02-14 13:51 51°10.844 2°42.539 12.8 238 2 102860 64
2003-02-14 13:52 51°10.895 2°42.766 11.6 241 2 102840 62
2003-02-14 13:53 51°10.944 2°42.993 11.2 240 2 102860 65
2003-02-14 13:54 51°10.994 2°43.222 12.8 241 2.1 102860 67
2003-02-14 13:55 51°11.043 2°43.45 11.4 240 2.1 102850 67
2003-02-14 13:56 51°11.093 2°43.676 12.5 238 2.1 102860 62
2003-02-14 13:57 51°11.142 2°43.902 12.9 240 2.1 102860 62
2003-02-14 13:58 51°11.191 2°44.127 12.2 240 2.1 102850 63
2003-02-14 13:59 51°11.24 2°44.351 13.3 247 2.1 102850 63
2003-02-14 14:00 51°11.288 2°44.576 12.6 238 2.1 102860 66
2003-02-14 14:01 51°11.343 2°44.797 12.5 238 2.1 102860 65
2003-02-14 14:02 51°11.397 2°45.017 13.5 237 2.1 102860 63
2003-02-14 14:03 51°11.451 2°45.238 12 241 2.1 102860 63
2003-02-14 14:04 51°11.505 2°45.46 13.5 243 2.1 102860 65
2003-02-14 14:05 51°11.559 2°45.682 12.7 243 2.1 102860 64
2003-02-14 14:06 51°11.613 2°45.905 11.2 242 2.1 102860 64
2003-02-14 14:07 51°11.668 2°46.128 11.5 239 2.1 102870 64
2003-02-14 14:08 51°11.722 2°46.35 11.7 241 2.2 102870 64
2003-02-14 14:09 51°11.782 2°46.569 12.3 237 2.2 102870 66
2003-02-14 14:10 51°11.845 2°46.787 13.1 240 2.2 102870 66
2003-02-14 14:11 51°11.906 2°47.004 12.8 242 2.2 102870 64
2003-02-14 14:12 51°11.968 2°47.221 12.6 245 2.1 102870 64
2003-02-14 14:13 51°12.031 2°47.439 12.3 243 2.1 102870 64
2003-02-14 14:14 51°12.092 2°47.656 12.8 245 2.1 102870 64
2003-02-14 14:15 51°12.152 2°47.872 12.1 242 2.1 102880 63
2003-02-14 14:16 51°12.212 2°48.088 12.9 247 2.1 102880 65
2003-02-14 14:17 51°12.275 2°48.304 13 240 2.1 102870 64
2003-02-14 14:18 51°12.341 2°48.517 12.6 240 2.1 102870 63
2003-02-14 14:19 51°12.405 2°48.73 12.1 238 2 102870 64
2003-02-14 14:20 51°12.472 2°48.944 11.9 242 2.1 102870 65
2003-02-14 14:21 51°12.537 2°49.158 12.2 241 2.1 102870 65
2003-02-14 14:22 51°12.606 2°49.369 12 240 2.1 102870 65
2003-02-14 14:23 51°12.679 2°49.576 11.7 239 2.1 102870 64
2003-02-14 14:24 51°12.752 2°49.783 12.3 238 2.1 102870 64
2003-02-14 14:25 51°12.825 2°49.992 10.4 237 2.1 102870 65
2003-02-14 14:26 51°12.899 2°50.201 12.1 237 2.1 102880 63
2003-02-14 14:27 51°12.974 2°50.408 11.6 239 2.1 102870 65
2003-02-14 14:28 51°13.05 2°50.616 11.5 237 2.1 102870 63
2003-02-14 14:29 51°13.126 2°50.824 11.4 240 2.1 102870 61
2003-02-14 14:30 51°13.201 2°51.03 12.5 235 2.1 102860 62
2003-02-14 14:31 51°13.274 2°51.234 11.5 239 2.1 102870 60
2003-02-14 14:32 51°13.347 2°51.438 11.4 237 2.1 102860 62
2003-02-14 14:33 51°13.42 2°51.642 12.2 239 2.1 102870 64
2003-02-14 14:34 51°13.492 2°51.844 12 241 2.1 102870 60
2003-02-14 14:35 51°13.564 2°52.046 12.1 240 2.2 102870 62
2003-02-14 14:36 51°13.666 2°52.264 13.6 231 2.2 102870 63
2003-02-14 14:37 51°13.796 2°52.522 14 230 2.1 102870 62
2003-02-14 14:38 51°13.934 2°52.794 13.9 234 2.2 102860 64
2003-02-14 14:39 51°14.072 2°53.067 14.6 235 2.2 102870 64
2003-02-14 14:40 51°14.199 2°53.354 14.2 238 2.1 102880 61
2003-02-14 14:41 51°14.299 2°53.664 14.8 239 2.1 102870 63
2003-02-14 14:42 51°14.369 2°53.992 14.1 246 2.2 102880 64
2003-02-14 14:43 51°14.399 2°54.323 13.1 250 2.2 102870 63
2003-02-14 14:44 51°14.416 2°54.645 12.5 261 2.2 102870 62
2003-02-14 14:45 51°14.385 2°54.954 12.2 269 2.2 102880 62
2003-02-14 14:46 51°14.292 2°55.202 8.1 277 2.2 102900 63
2003-02-14 14:47 51°14.203 2°55.343 5.9 299 2.3 102910 64